Time;durP1;ratioP1;P1;durP2;ratioP2;P2;SDS_P1;SDS_P2;PMS_P1;PMS_P2;Temp;Humidity;BMP_temperature;BMP_pressure;BME280_temperature;BME280_humidity;BME280_pressure;Samples;Min_cycle;Max_cycle;Signal;HPM_P1;HPM_P2
2023/01/01 00:01:23;;;;;;;7.70;4.70;;;;;;;14.39;58.92;95811.72;5002284;28;20249;-83
2023/01/01 00:03:53;;;;;;;4.87;3.37;;;;;;;14.44;59.07;95816.47;5013552;28;20183;-83
2023/01/01 00:06:19;;;;;;;5.77;3.37;;;;;;;14.36;58.55;95817.28;5024670;28;20560;-83
2023/01/01 00:08:45;;;;;;;6.40;3.97;;;;;;;14.43;58.70;95817.44;5000806;28;20211;-84
2023/01/01 00:11:10;;;;;;;5.20;2.87;;;;;;;14.39;58.39;95813.50;5025115;28;20209;-84
2023/01/01 00:13:37;;;;;;;3.83;2.83;;;;;;;14.37;58.31;95813.69;5022531;28;20198;-85
2023/01/01 00:16:06;;;;;;;3.57;3.17;;;;;;;14.35;58.48;95807.00;5011568;28;20187;-84
2023/01/01 00:18:31;;;;;;;5.33;3.20;;;;;;;14.34;58.66;95802.75;5033274;28;20628;-84
2023/01/01 00:21:03;;;;;;;4.47;3.30;;;;;;;14.26;58.97;95805.38;5021675;28;20189;-85
2023/01/01 00:23:28;;;;;;;5.90;3.10;;;;;;;14.20;59.05;95801.63;5029354;28;20221;-85
2023/01/01 00:25:53;;;;;;;4.23;3.90;;;;;;;14.24;59.19;95804.72;5020209;28;20822;-84
2023/01/01 00:28:19;;;;;;;7.17;5.03;;;;;;;14.04;60.13;95810.25;5024590;28;20443;-85
2023/01/01 00:30:44;;;;;;;6.83;5.63;;;;;;;14.06;60.69;95810.13;5022900;28;20186;-85
2023/01/01 00:33:09;;;;;;;7.17;5.20;;;;;;;13.77;62.21;95805.31;5013373;28;20647;-85
2023/01/01 00:35:35;;;;;;;6.40;4.40;;;;;;;13.72;62.26;95812.84;5020950;28;20194;-84
2023/01/01 00:38:00;;;;;;;6.00;3.73;;;;;;;13.62;62.84;95813.00;5030760;28;20214;-85
2023/01/01 00:40:25;;;;;;;4.97;3.40;;;;;;;13.65;63.17;95815.25;5018856;28;20187;-86
2023/01/01 00:42:51;;;;;;;3.70;2.80;;;;;;;13.51;63.21;95811.47;5017385;28;20337;-84
2023/01/01 00:45:16;;;;;;;4.60;3.57;;;;;;;13.50;63.40;95809.03;5017209;28;20265;-84
2023/01/01 00:47:41;;;;;;;5.10;3.10;;;;;;;13.51;63.30;95813.25;5010446;28;20222;-84
2023/01/01 00:50:07;;;;;;;4.40;3.77;;;;;;;13.48;63.70;95813.59;5017048;28;20203;-85
2023/01/01 00:52:32;;;;;;;3.73;3.13;;;;;;;13.45;63.54;95812.13;5011174;28;20244;-85
2023/01/01 00:54:57;;;;;;;6.33;4.30;;;;;;;13.46;63.44;95807.72;5021649;28;20187;-85
2023/01/01 00:57:23;;;;;;;3.90;3.50;;;;;;;13.37;63.64;95808.69;5019415;28;20214;-85
2023/01/01 00:59:48;;;;;;;3.33;3.03;;;;;;;13.35;63.55;95816.66;5019824;28;20185;-85
2023/01/01 01:02:13;;;;;;;5.90;3.23;;;;;;;13.39;63.74;95815.34;5020961;28;20194;-85
2023/01/01 01:04:38;;;;;;;3.87;3.47;;;;;;;13.34;63.56;95809.81;5019937;28;20187;-85
2023/01/01 01:07:04;;;;;;;4.50;3.30;;;;;;;13.31;64.00;95810.94;5024129;28;20213;-84
2023/01/01 01:09:29;;;;;;;4.50;3.03;;;;;;;13.23;64.06;95817.91;5015104;28;20309;-85
2023/01/01 01:11:54;;;;;;;5.23;3.70;;;;;;;13.26;64.26;95812.38;5017325;28;20273;-84
2023/01/01 01:14:20;;;;;;;5.67;3.20;;;;;;;13.31;63.93;95815.31;5016118;28;20226;-85
2023/01/01 01:16:45;;;;;;;4.27;3.27;;;;;;;13.18;64.57;95813.13;5011953;28;20268;-85
2023/01/01 01:19:14;;;;;;;4.07;2.80;;;;;;;13.21;64.72;95807.63;5027890;28;20185;-85
2023/01/01 01:21:40;;;;;;;3.43;2.50;;;;;;;13.16;64.77;95812.47;5006898;28;20282;-84
2023/01/01 01:24:05;;;;;;;4.80;3.10;;;;;;;13.11;65.00;95809.53;5024258;28;20299;-84
2023/01/01 01:26:32;;;;;;;4.50;3.33;;;;;;;13.04;65.30;95811.94;5012924;28;20555;-85
2023/01/01 01:28:58;;;;;;;3.27;2.80;;;;;;;13.12;65.01;95821.59;5010911;28;20610;-84
2023/01/01 01:31:27;;;;;;;3.70;2.20;;;;;;;13.10;64.82;95818.31;5018491;28;20194;-84
2023/01/01 01:33:52;;;;;;;2.53;1.80;;;;;;;13.24;64.10;95815.13;5020283;28;20221;-84
2023/01/01 01:36:18;;;;;;;3.47;2.03;;;;;;;13.27;63.84;95811.41;5005379;28;20650;-85
2023/01/01 01:38:43;;;;;;;2.90;2.10;;;;;;;13.27;63.92;95812.22;5019833;28;20214;-84
2023/01/01 01:41:10;;;;;;;2.83;2.10;;;;;;;13.21;63.82;95820.66;5016748;28;20198;-85
2023/01/01 01:43:35;;;;;;;2.40;2.00;;;;;;;13.33;63.21;95823.81;5011842;28;20678;-86
2023/01/01 01:46:05;;;;;;;3.63;2.03;;;;;;;13.41;63.46;95821.22;5024321;28;20179;-84
2023/01/01 01:48:37;;;;;;;2.90;1.87;;;;;;;13.49;63.12;95823.88;5020112;28;20225;-85
2023/01/01 01:51:03;;;;;;;4.83;1.60;;;;;;;13.45;62.74;95821.75;5026015;28;20670;-84
2023/01/01 01:53:29;;;;;;;2.03;1.70;;;;;;;13.46;62.55;95818.97;5022731;28;20183;-85
2023/01/01 01:56:09;;;;;;;2.50;2.30;;;;;;;13.57;62.58;95826.50;5020774;28;20230;-84
2023/01/01 01:58:35;;;;;;;3.17;2.07;;;;;;;13.65;61.92;95824.88;5022256;28;20207;-85
2023/01/01 02:01:00;;;;;;;3.17;2.37;;;;;;;13.60;62.18;95827.97;5016072;28;20277;-84
2023/01/01 02:03:32;;;;;;;3.77;2.30;;;;;;;13.69;62.01;95821.78;5018570;28;20245;-85
2023/01/01 02:05:58;;;;;;;3.57;1.97;;;;;;;13.58;62.20;95822.09;5008067;28;20186;-85
2023/01/01 02:08:24;;;;;;;3.50;2.17;;;;;;;13.71;61.80;95829.47;5014974;28;20712;-85
2023/01/01 02:10:50;;;;;;;5.10;2.37;;;;;;;13.72;61.84;95818.88;5013087;28;20669;-84
2023/01/01 02:13:15;;;;;;;4.17;2.33;;;;;;;13.67;62.18;95820.31;5022820;28;20186;-84
2023/01/01 02:16:20;;;;;;;3.60;3.17;;;;;;;13.68;62.03;95822.75;5010343;28;20183;-85
2023/01/01 02:19:22;;;;;;;3.53;2.80;;;;;;;13.71;61.89;95825.06;4991797;28;20222;-86
2023/01/01 02:22:09;;;;;;;3.20;2.63;;;;;;;13.59;62.24;95840.19;5015464;28;20548;-85
2023/01/01 02:24:51;;;;;;;5.27;3.07;;;;;;;13.61;61.80;95842.66;5024108;28;20187;-85
2023/01/01 02:27:46;;;;;;;5.20;3.33;;;;;;;13.74;61.73;95829.16;5023416;28;20713;-85
2023/01/01 02:30:11;;;;;;;4.50;2.87;;;;;;;13.55;62.51;95827.63;5022250;28;20225;-85
2023/01/01 02:32:45;;;;;;;4.87;3.20;;;;;;;13.50;62.44;95830.72;5023748;28;20273;-85
2023/01/01 02:35:34;;;;;;;4.53;2.60;;;;;;;13.58;62.20;95825.50;5024851;28;20282;-85
2023/01/01 02:38:05;;;;;;;3.87;2.70;;;;;;;13.57;62.44;95823.88;5004803;28;20278;-85
2023/01/01 02:40:30;;;;;;;6.27;3.10;;;;;;;13.55;62.23;95832.84;5020372;28;20183;-85
2023/01/01 02:42:56;;;;;;;3.67;3.17;;;;;;;13.45;62.97;95821.75;5016001;28;20217;-85
2023/01/01 02:45:22;;;;;;;5.67;3.50;;;;;;;13.51;62.39;95823.69;5014877;28;20198;-85
2023/01/01 02:47:47;;;;;;;3.80;2.60;;;;;;;13.39;62.77;95831.00;5015606;28;20690;-85
2023/01/01 02:50:15;;;;;;;6.80;3.40;;;;;;;13.44;62.57;95831.38;5017758;28;20206;-85
2023/01/01 02:53:02;;;;;;;4.00;2.70;;;;;;;13.28;62.25;95837.34;5033329;28;20220;-85
2023/01/01 02:55:51;;;;;;;5.83;2.97;;;;;;;13.25;62.23;95840.25;5020475;28;20182;-85
2023/01/01 03:01:23;;;;;;;3.70;2.70;;;;;;;13.24;61.57;95830.78;5023922;28;20261;-85
2023/01/01 03:03:57;;;;;;;3.97;2.60;;;;;;;13.35;60.12;95834.09;5026185;28;20214;-85
2023/01/01 03:06:48;;;;;;;7.23;3.37;;;;;;;13.34;59.33;95830.69;5026268;28;20175;-85
2023/01/01 03:09:23;;;;;;;4.20;2.40;;;;;;;13.39;58.54;95832.81;5026447;28;20207;-85
2023/01/01 03:11:56;;;;;;;3.37;2.40;;;;;;;13.41;57.83;95834.28;5024757;28;20177;-85
2023/01/01 03:14:42;;;;;;;4.73;2.80;;;;;;;13.44;57.76;95847.00;5018717;28;20197;-85
2023/01/01 03:17:15;;;;;;;2.30;2.00;;;;;;;13.49;57.39;95839.50;4987156;28;20233;-86
2023/01/01 03:19:41;;;;;;;3.50;2.13;;;;;;;13.33;57.55;95848.09;5023612;28;20194;-84
2023/01/01 03:22:09;;;;;;;6.00;2.27;;;;;;;13.39;57.54;95844.06;5022309;28;20183;-86
2023/01/01 03:25:03;;;;;;;2.33;1.90;;;;;;;13.32;57.63;95837.81;4997325;28;20187;-85
2023/01/01 03:27:35;;;;;;;3.00;2.30;;;;;;;13.38;57.76;95849.44;4972858;28;20230;-84
2023/01/01 03:30:07;;;;;;;3.07;2.20;;;;;;;13.31;57.61;95857.88;4938699;28;20243;-83
2023/01/01 03:35:33;;;;;;;4.00;2.20;;;;;;;13.16;57.33;95848.97;4958116;28;20219;-85
2023/01/01 03:37:59;;;;;;;4.03;1.63;;;;;;;13.18;57.41;95852.25;4958997;28;20744;-85
2023/01/01 03:40:25;;;;;;;3.17;2.07;;;;;;;13.14;57.52;95856.13;4958567;28;20596;-84
2023/01/01 03:42:54;;;;;;;3.57;1.83;;;;;;;13.18;57.34;95861.88;4956281;28;20223;-85
2023/01/01 03:45:32;;;;;;;3.63;1.77;;;;;;;13.17;57.33;95847.19;4957393;28;20202;-84
2023/01/01 03:47:58;;;;;;;3.40;1.80;;;;;;;13.14;56.85;95855.31;4957170;28;20335;-85
2023/01/01 03:50:29;;;;;;;2.40;1.80;;;;;;;13.15;56.99;95855.16;4973612;28;20251;-85
2023/01/01 03:53:09;;;;;;;2.97;1.80;;;;;;;13.20;55.90;95852.94;4973650;28;20203;-84
2023/01/01 03:55:43;;;;;;;2.57;1.90;;;;;;;13.17;55.28;95865.47;4965174;28;20181;-84
2023/01/01 03:58:22;;;;;;;2.20;1.53;;;;;;;13.37;54.92;95853.84;4956371;28;20290;-85
2023/01/01 04:00:55;;;;;;;3.57;1.50;;;;;;;13.30;55.28;95865.84;4974530;28;20587;-84
2023/01/01 04:03:26;;;;;;;3.00;1.60;;;;;;;13.28;55.26;95854.78;4964457;28;20204;-83
2023/01/01 04:05:51;;;;;;;4.57;1.63;;;;;;;13.22;54.88;95860.59;5005825;28;20187;-84
2023/01/01 04:08:17;;;;;;;6.30;1.90;;;;;;;13.28;54.82;95863.41;5017147;28;20198;-84
2023/01/01 04:10:47;;;;;;;4.03;1.70;;;;;;;13.20;54.81;95858.16;5022990;28;20280;-85
2023/01/01 04:13:12;;;;;;;4.77;1.93;;;;;;;13.13;54.90;95864.94;5022943;28;20247;-85
2023/01/01 04:15:38;;;;;;;4.47;1.80;;;;;;;13.07;54.88;95862.94;5030653;28;20666;-85
2023/01/01 04:18:04;;;;;;;7.33;1.80;;;;;;;13.17;54.18;95868.88;5025837;28;20246;-84
2023/01/01 04:20:29;;;;;;;3.37;1.40;;;;;;;13.17;54.47;95857.63;5016615;28;20578;-84
2023/01/01 04:22:56;;;;;;;1.73;1.40;;;;;;;13.24;54.30;95856.84;5017646;28;20229;-84
2023/01/01 04:25:21;;;;;;;1.90;1.43;;;;;;;13.08;54.79;95856.78;5014347;28;20195;-84
2023/01/01 04:27:46;;;;;;;2.30;1.30;;;;;;;13.01;55.25;95859.19;5025791;28;20218;-85
2023/01/01 04:30:13;;;;;;;3.60;1.53;;;;;;;13.03;55.50;95859.03;5023987;28;20214;-85
2023/01/01 04:32:38;;;;;;;1.77;1.23;;;;;;;12.91;56.00;95860.25;5019859;28;20210;-85
2023/01/01 04:35:07;;;;;;;3.20;1.70;;;;;;;12.88;56.36;95866.59;5015040;28;20179;-84
2023/01/01 04:37:35;;;;;;;5.10;1.50;;;;;;;13.05;55.95;95867.50;5001867;28;20599;-85
2023/01/01 04:40:00;;;;;;;3.73;1.60;;;;;;;12.92;56.56;95869.72;5025491;28;20739;-84
2023/01/01 04:42:25;;;;;;;4.70;1.33;;;;;;;12.98;56.57;95862.06;5021909;28;20218;-85
2023/01/01 04:44:51;;;;;;;2.73;1.60;;;;;;;12.92;56.79;95873.13;5021698;28;20201;-84
2023/01/01 04:47:16;;;;;;;4.53;1.77;;;;;;;12.80;57.18;95861.31;5025416;28;20207;-84
2023/01/01 04:49:41;;;;;;;3.03;1.60;;;;;;;12.92;56.82;95864.50;5019110;28;20214;-85
2023/01/01 04:52:06;;;;;;;4.47;1.90;;;;;;;12.80;57.75;95863.91;5020286;28;20183;-84
2023/01/01 04:54:32;;;;;;;2.17;1.43;;;;;;;12.84;57.40;95862.66;5022739;28;20653;-85
2023/01/01 04:56:57;;;;;;;4.07;1.87;;;;;;;12.81;57.66;95869.94;5019862;28;20198;-85
2023/01/01 04:59:22;;;;;;;5.20;1.60;;;;;;;12.71;58.19;95865.66;5018278;28;20254;-85
2023/01/01 05:01:48;;;;;;;4.07;1.80;;;;;;;12.84;58.06;95869.66;5017722;28;20404;-84
2023/01/01 05:04:14;;;;;;;3.67;2.03;;;;;;;12.80;58.08;95869.13;5023075;28;20190;-84
2023/01/01 05:06:39;;;;;;;4.00;1.80;;;;;;;12.97;57.26;95870.06;5024926;28;20609;-84
2023/01/01 05:09:05;;;;;;;1.47;1.37;;;;;;;12.92;57.78;95870.53;5015862;28;20203;-84
2023/01/01 05:11:30;;;;;;;2.30;1.40;;;;;;;12.97;57.69;95872.66;5025859;28;20181;-85
2023/01/01 05:13:58;;;;;;;3.67;1.60;;;;;;;12.91;58.16;95881.13;5013040;28;20592;-85
2023/01/01 05:16:26;;;;;;;4.20;2.07;;;;;;;12.86;58.06;95883.34;5016889;28;20229;-85
2023/01/01 05:18:52;;;;;;;2.17;1.47;;;;;;;12.92;57.62;95885.34;5028475;28;20190;-84
2023/01/01 05:21:20;;;;;;;3.13;1.23;;;;;;;12.89;57.91;95883.03;5023346;28;20668;-85
2023/01/01 05:23:45;;;;;;;3.73;1.47;;;;;;;12.75;58.43;95877.44;5021864;28;20198;-84
2023/01/01 05:26:18;;;;;;;1.83;1.20;;;;;;;12.72;58.82;95882.94;5015179;28;20190;-84
2023/01/01 05:28:44;;;;;;;2.40;1.50;;;;;;;12.76;58.56;95892.09;5020079;28;20223;-85
2023/01/01 05:31:12;;;;;;;4.83;1.50;;;;;;;12.75;58.76;95893.06;5008209;28;20191;-85
2023/01/01 05:33:37;;;;;;;2.53;1.50;;;;;;;12.62;59.00;95897.84;5029023;28;20195;-84
2023/01/01 05:36:04;;;;;;;5.17;1.50;;;;;;;12.61;59.36;95893.59;5010710;28;20242;-85
2023/01/01 05:38:30;;;;;;;5.27;1.50;;;;;;;12.61;59.40;95898.00;5022379;28;20349;-84
2023/01/01 05:40:56;;;;;;;4.10;1.80;;;;;;;12.58;59.58;95893.91;5015915;28;20241;-85
2023/01/01 05:43:21;;;;;;;2.60;1.40;;;;;;;12.58;59.35;95895.69;5020432;28;20187;-85
2023/01/01 05:45:46;;;;;;;1.67;1.33;;;;;;;12.45;59.79;95901.28;5014073;28;20202;-84
2023/01/01 05:48:12;;;;;;;3.60;1.70;;;;;;;12.52;59.98;95894.50;5025220;28;20238;-84
2023/01/01 05:50:37;;;;;;;2.93;1.43;;;;;;;12.49;59.77;95894.81;5032040;28;20289;-84
2023/01/01 05:53:02;;;;;;;5.10;1.60;;;;;;;12.46;59.79;95898.56;5022211;28;20233;-85
2023/01/01 05:55:28;;;;;;;5.97;1.97;;;;;;;12.46;59.79;95900.34;5009652;28;20183;-84
2023/01/01 05:57:53;;;;;;;3.80;1.30;;;;;;;12.46;59.24;95901.16;5016637;28;20207;-84
2023/01/01 06:00:19;;;;;;;3.33;1.53;;;;;;;12.54;58.94;95905.59;5018708;28;20192;-84
2023/01/01 06:02:44;;;;;;;4.87;1.60;;;;;;;12.48;59.10;95907.03;5026282;28;20206;-85
2023/01/01 06:05:09;;;;;;;2.00;1.17;;;;;;;12.54;58.22;95904.78;5024531;28;20190;-85
2023/01/01 06:07:35;;;;;;;4.10;1.50;;;;;;;12.52;58.49;95907.53;5026843;28;20234;-85
2023/01/01 06:10:00;;;;;;;2.87;1.60;;;;;;;12.54;58.38;95909.97;5024846;28;20265;-84
2023/01/01 06:12:26;;;;;;;3.40;1.57;;;;;;;12.54;58.16;95916.00;5025328;28;20209;-84
2023/01/01 06:14:51;;;;;;;4.00;1.60;;;;;;;12.62;57.97;95913.47;5024562;28;20179;-84
2023/01/01 06:17:16;;;;;;;4.83;1.63;;;;;;;12.54;58.11;95921.22;5028449;28;20218;-84
2023/01/01 06:19:41;;;;;;;4.17;1.90;;;;;;;12.59;57.58;95926.81;5030683;28;20552;-85
2023/01/01 06:22:07;;;;;;;4.30;1.83;;;;;;;12.67;57.58;95921.66;5027142;28;20788;-84
2023/01/01 06:24:32;;;;;;;5.20;1.73;;;;;;;12.66;57.89;95919.22;5023361;28;20190;-85
2023/01/01 06:26:57;;;;;;;3.97;1.80;;;;;;;12.50;58.77;95914.69;5033065;28;20210;-85
2023/01/01 06:29:23;;;;;;;3.53;1.63;;;;;;;12.33;59.65;95918.94;5035114;28;20202;-84
2023/01/01 06:31:48;;;;;;;2.90;1.77;;;;;;;12.38;59.48;95916.72;5042976;28;20206;-84
2023/01/01 06:34:13;;;;;;;3.67;1.50;;;;;;;12.31;60.17;95915.66;5043118;28;20183;-84
2023/01/01 06:36:38;;;;;;;3.93;1.60;;;;;;;12.22;60.60;95921.78;5059097;28;20179;-84
2023/01/01 06:39:04;;;;;;;3.13;1.43;;;;;;;12.24;60.81;95921.63;5051771;28;20213;-85
2023/01/01 06:41:29;;;;;;;4.07;1.70;;;;;;;12.04;61.46;95926.97;5058569;28;20166;-84
2023/01/01 06:43:56;;;;;;;3.80;1.53;;;;;;;12.16;61.27;95928.38;5044482;28;20203;-84
2023/01/01 06:46:24;;;;;;;4.67;1.53;;;;;;;12.10;61.62;95929.00;5024132;28;20655;-84
2023/01/01 06:48:55;;;;;;;3.07;2.07;;;;;;;12.08;61.80;95930.91;4996151;28;20207;-84
2023/01/01 06:51:23;;;;;;;4.77;1.80;;;;;;;12.01;61.93;95934.22;5017453;28;20198;-84
2023/01/01 06:53:49;;;;;;;4.33;2.27;;;;;;;11.91;62.59;95936.91;5023341;28;20191;-83
2023/01/01 06:56:14;;;;;;;4.03;1.67;;;;;;;11.84;62.66;95928.88;5020154;28;20557;-84
2023/01/01 06:58:40;;;;;;;4.37;1.70;;;;;;;11.89;62.46;95931.03;5014240;28;20218;-84
2023/01/01 07:01:17;;;;;;;4.30;2.00;;;;;;;11.87;62.26;95932.97;5031673;28;20248;-85
2023/01/01 07:03:43;;;;;;;2.17;1.60;;;;;;;11.73;62.81;95938.59;5015514;28;20190;-85
2023/01/01 07:06:09;;;;;;;4.83;1.90;;;;;;;11.66;63.41;95928.00;5022047;28;20199;-84
2023/01/01 07:08:35;;;;;;;5.53;1.70;;;;;;;11.62;63.32;95935.25;5021142;28;20245;-84
2023/01/01 07:11:01;;;;;;;5.30;2.00;;;;;;;11.57;63.71;95940.06;5023241;28;20218;-84
2023/01/01 07:13:27;;;;;;;4.87;1.70;;;;;;;11.59;63.75;95939.94;5028382;28;20198;-85
2023/01/01 07:15:53;;;;;;;2.63;1.73;;;;;;;11.63;63.72;95936.88;5014684;28;20269;-84
2023/01/01 07:18:20;;;;;;;2.43;1.80;;;;;;;11.74;63.27;95937.63;5014090;28;20234;-84
2023/01/01 07:20:53;;;;;;;3.47;1.90;;;;;;;11.61;63.16;95944.00;5005328;28;20668;-84
2023/01/01 07:23:18;;;;;;;6.10;2.00;;;;;;;11.71;63.12;95943.97;5005464;28;20183;-85
2023/01/01 07:25:44;;;;;;;4.03;1.60;;;;;;;11.75;63.23;95947.09;5017855;28;20187;-84
2023/01/01 07:28:09;;;;;;;4.57;2.50;;;;;;;11.70;63.31;95949.31;5023705;28;20269;-85
2023/01/01 07:30:34;;;;;;;3.57;1.87;;;;;;;11.75;63.25;95945.31;5018844;28;20785;-84
2023/01/01 07:33:00;;;;;;;4.10;1.90;;;;;;;11.73;63.30;95949.03;5013625;28;20222;-85
2023/01/01 07:35:25;;;;;;;4.50;2.33;;;;;;;11.72;62.97;95960.38;5021163;28;20582;-84
2023/01/01 07:37:50;;;;;;;4.77;2.10;;;;;;;11.64;63.27;95959.31;5022375;28;20241;-84
2023/01/01 07:40:15;;;;;;;5.27;1.77;;;;;;;11.74;62.79;95961.06;5016353;28;20183;-84
2023/01/01 07:42:41;;;;;;;3.97;2.10;;;;;;;11.74;62.66;95963.66;5018260;28;20199;-84
2023/01/01 07:45:06;;;;;;;3.23;1.93;;;;;;;11.75;63.01;95970.50;5022693;28;20194;-84
2023/01/01 07:47:32;;;;;;;5.50;2.23;;;;;;;11.74;63.00;95981.88;5026818;28;20614;-85
2023/01/01 07:49:57;;;;;;;4.67;2.00;;;;;;;11.76;62.62;95978.19;5029967;28;20206;-85
2023/01/01 07:52:23;;;;;;;4.77;1.80;;;;;;;11.75;62.69;95986.97;5006971;28;20230;-84
2023/01/01 07:54:48;;;;;;;16.23;12.20;;;;;;;11.84;62.58;95985.31;5019706;28;20580;-86
2023/01/01 07:57:14;;;;;;;6.27;3.30;;;;;;;11.74;62.69;95993.09;5029906;28;20214;-84
2023/01/01 07:59:39;;;;;;;6.67;2.47;;;;;;;11.89;62.12;96006.50;5031200;28;20300;-85
2023/01/01 08:02:04;;;;;;;4.17;2.37;;;;;;;11.90;62.36;96000.31;5023544;28;20186;-85
2023/01/01 08:04:30;;;;;;;4.97;2.13;;;;;;;11.90;62.02;96010.72;5012979;28;20202;-83
2023/01/01 08:06:55;;;;;;;4.83;2.10;;;;;;;11.83;62.61;96004.47;5030249;28;20206;-85
2023/01/01 08:09:20;;;;;;;4.10;1.93;;;;;;;11.81;62.60;96016.78;5028388;28;20592;-83
2023/01/01 08:11:46;;;;;;;4.73;2.17;;;;;;;11.79;63.06;96019.50;5022563;28;20573;-84
2023/01/01 08:14:12;;;;;;;4.13;2.17;;;;;;;11.77;63.63;96016.25;5015420;28;20206;-84
2023/01/01 08:16:37;;;;;;;4.60;2.43;;;;;;;11.64;64.22;96013.94;5007989;28;20190;-84
2023/01/01 08:19:03;;;;;;;6.00;3.03;;;;;;;11.56;64.79;96013.03;5016942;28;20187;-84
2023/01/01 08:21:28;;;;;;;5.60;2.17;;;;;;;11.59;65.08;96013.56;5024478;28;20618;-83
2023/01/01 08:23:54;;;;;;;4.50;2.47;;;;;;;11.58;65.60;96016.31;5030931;28;20182;-84
2023/01/01 08:26:28;;;;;;;3.33;2.10;;;;;;;11.50;66.11;96030.03;5027431;28;20187;-85
2023/01/01 08:28:53;;;;;;;4.73;2.10;;;;;;;11.51;66.69;96026.47;5012125;28;20201;-83
2023/01/01 08:31:18;;;;;;;5.20;2.50;;;;;;;11.53;66.43;96028.91;5026947;28;20578;-83
2023/01/01 08:33:44;;;;;;;3.33;2.20;;;;;;;11.60;67.03;96036.03;5031838;28;20189;-85
2023/01/01 08:36:11;;;;;;;3.50;2.03;;;;;;;11.55;67.57;96027.00;5023173;28;20195;-85
2023/01/01 08:38:37;;;;;;;3.83;1.93;;;;;;;11.67;67.67;96038.88;5011762;28;20237;-84
2023/01/01 08:41:02;;;;;;;2.87;1.90;;;;;;;11.71;67.10;96037.63;5012721;28;20179;-85
2023/01/01 08:43:27;;;;;;;2.53;1.87;;;;;;;11.73;66.88;96034.88;5015931;28;20182;-83
2023/01/01 08:45:52;;;;;;;4.20;1.90;;;;;;;11.69;67.55;96036.13;5022959;28;20246;-85
2023/01/01 08:48:18;;;;;;;2.43;1.60;;;;;;;11.80;67.15;96041.19;5025541;28;20206;-84
2023/01/01 08:50:43;;;;;;;2.17;1.67;;;;;;;11.77;67.32;96037.06;5016241;28;20506;-83
2023/01/01 08:53:15;;;;;;;3.63;1.80;;;;;;;11.85;67.24;96036.38;5018517;28;20563;-91
2023/01/01 08:55:40;;;;;;;4.93;2.17;;;;;;;11.93;66.91;96040.84;5025483;28;20932;-84
2023/01/01 08:58:08;;;;;;;6.50;4.67;;;;;;;12.06;66.67;96043.94;5030477;28;20215;-86
2023/01/01 09:00:34;;;;;;;6.30;2.23;;;;;;;12.10;66.21;96045.28;5026049;28;20227;-85
2023/01/01 09:02:59;;;;;;;4.63;1.90;;;;;;;12.11;66.55;96039.13;5015435;28;20281;-85
2023/01/01 09:05:33;;;;;;;4.87;1.80;;;;;;;12.24;65.89;96051.81;5023502;28;20198;-88
2023/01/01 09:07:58;;;;;;;3.20;1.97;;;;;;;12.15;66.04;96046.50;5020513;28;20341;-84
2023/01/01 09:10:23;;;;;;;5.73;2.43;;;;;;;12.11;66.21;96041.75;5018032;28;20765;-84
2023/01/01 09:12:49;;;;;;;3.10;1.80;;;;;;;12.17;66.05;96043.75;5016469;28;20194;-83
2023/01/01 09:15:15;;;;;;;3.37;2.10;;;;;;;12.22;66.04;96036.34;5010686;28;20191;-84
2023/01/01 09:17:41;;;;;;;4.37;2.13;;;;;;;12.23;66.20;96031.94;5011699;28;20226;-84
2023/01/01 09:20:06;;;;;;;5.23;1.60;;;;;;;12.28;66.11;96040.13;5020915;28;20182;-85
2023/01/01 09:22:33;;;;;;;4.80;2.13;;;;;;;12.19;65.99;96037.44;5020215;28;20234;-84
2023/01/01 09:24:58;;;;;;;8.57;2.83;;;;;;;12.42;65.59;96039.63;5025798;28;20215;-83
2023/01/01 09:27:33;;;;;;;3.17;2.20;;;;;;;12.58;64.99;96042.41;5069308;23;20254;-86
2023/01/01 09:29:59;;;;;;;6.43;2.03;;;;;;;12.69;64.53;96054.41;5033038;28;20281;-83
2023/01/01 09:32:24;;;;;;;5.83;2.47;;;;;;;12.68;64.39;96052.75;5035272;28;20274;-84
2023/01/01 09:34:50;;;;;;;4.47;1.80;;;;;;;12.95;63.35;96047.47;5021384;28;20189;-85
2023/01/01 09:37:15;;;;;;;5.80;2.40;;;;;;;13.08;63.24;96049.72;5028904;28;20235;-84
2023/01/01 09:39:40;;;;;;;4.57;1.80;;;;;;;13.20;62.68;96058.97;5013011;28;20633;-83
2023/01/01 09:42:28;;;;;;;3.27;1.97;;;;;;;13.22;62.38;96059.63;4997548;28;20187;-84
2023/01/01 09:45:11;;;;;;;8.40;2.70;;;;;;;13.39;61.75;96051.91;5010192;28;20185;-84
2023/01/01 09:47:43;;;;;;;3.20;2.13;;;;;;;13.42;61.90;96069.88;4993790;28;20317;-83
2023/01/01 09:50:15;;;;;;;6.17;2.43;;;;;;;13.52;61.49;96065.41;5013900;28;20277;-82
2023/01/01 09:52:59;;;;;;;4.73;2.07;;;;;;;13.60;60.69;96074.09;5027487;28;20179;-83
2023/01/01 09:55:33;;;;;;;5.43;3.00;;;;;;;13.69;60.46;96066.28;5013977;28;20213;-82
2023/01/01 09:57:58;;;;;;;4.47;2.20;;;;;;;13.71;60.45;96067.78;4999303;28;20226;-82
2023/01/01 10:00:24;;;;;;;5.30;2.13;;;;;;;13.73;60.38;96071.06;5015677;28;20183;-83
2023/01/01 10:03:10;;;;;;;4.33;2.10;;;;;;;13.68;60.20;96068.09;5016317;28;20628;-82
2023/01/01 10:05:50;;;;;;;3.17;2.07;;;;;;;13.80;59.64;96077.31;5026464;28;20183;-83
2023/01/01 10:08:58;;;;;;;4.43;1.90;;;;;;;13.81;59.89;96078.13;4999032;28;20218;-85
2023/01/01 10:12:01;;;;;;;5.07;1.93;;;;;;;13.96;58.72;96073.97;5014191;28;20240;-83
2023/01/01 10:14:38;;;;;;;6.07;2.17;;;;;;;13.91;59.23;96071.00;5013013;28;20210;-84
2023/01/01 10:17:17;;;;;;;2.90;1.93;;;;;;;14.24;58.35;96068.56;5014774;28;20242;-84
2023/01/01 10:19:44;;;;;;;11.10;3.10;;;;;;;14.34;57.77;96072.66;5045898;28;20601;-82
2023/01/01 10:22:23;;;;;;;6.87;1.97;;;;;;;14.53;57.30;96069.00;5014385;28;20187;-83
2023/01/01 10:24:55;;;;;;;5.57;1.93;;;;;;;14.60;57.08;96067.38;5011001;28;20179;-83
2023/01/01 10:27:44;;;;;;;5.73;2.33;;;;;;;14.69;56.51;96073.44;5012707;28;20225;-84
2023/01/01 10:30:16;;;;;;;4.20;2.13;;;;;;;14.76;55.24;96068.41;4994872;28;20223;-83
2023/01/01 10:32:43;;;;;;;4.83;2.33;;;;;;;14.91;54.33;96064.16;4997019;28;20211;-83
2023/01/01 10:35:14;;;;;;;4.77;2.30;;;;;;;14.91;53.93;96061.53;5014169;28;20210;-83
2023/01/01 10:37:39;;;;;;;4.70;1.80;;;;;;;14.90;51.99;96058.13;5014224;28;20571;-82
2023/01/01 10:40:17;;;;;;;4.77;2.90;;;;;;;15.14;51.43;96062.56;5014545;28;20270;-83
2023/01/01 10:42:59;;;;;;;10.43;4.03;;;;;;;15.30;50.78;96072.22;5048267;28;20195;-83
2023/01/01 10:45:37;;;;;;;8.90;4.63;;;;;;;15.37;50.52;96067.97;5010743;28;20716;-83
2023/01/01 10:48:26;;;;;;;9.37;3.87;;;;;;;15.54;50.38;96084.44;5026242;28;20211;-83
2023/01/01 10:50:54;;;;;;;8.57;4.70;;;;;;;15.74;50.47;96066.63;5013379;28;20293;-84
2023/01/01 10:53:28;;;;;;;7.88;3.10;;;;;;;15.64;51.57;96068.63;4996379;28;20764;-85
2023/01/01 10:56:05;;;;;;;8.83;2.17;;;;;;;15.26;49.23;96065.66;5042517;28;20195;-83
2023/01/01 10:58:38;;;;;;;6.73;2.20;;;;;;;15.56;48.90;96059.75;5012485;28;20213;-85
2023/01/01 11:01:06;;;;;;;6.13;2.43;;;;;;;15.77;47.71;96054.00;4996358;28;20194;-83
2023/01/01 11:03:32;;;;;;;10.70;3.40;;;;;;;15.87;47.42;96064.31;5012844;28;20274;-84
2023/01/01 11:06:04;;;;;;;4.07;2.10;;;;;;;15.88;47.59;96059.88;5012534;28;20266;-84
2023/01/01 11:08:31;;;;;;;7.60;2.37;;;;;;;15.89;47.00;96056.28;4997024;28;20717;-84
2023/01/01 11:10:58;;;;;;;12.45;3.33;;;;;;;15.87;47.26;96053.81;5011623;28;20212;-83
2023/01/01 11:13:24;;;;;;;5.27;2.30;;;;;;;15.93;47.41;96050.53;5012889;28;20199;-83
2023/01/01 11:15:49;;;;;;;6.93;2.67;;;;;;;16.06;47.42;96068.34;5012074;28;20246;-84
2023/01/01 11:18:19;;;;;;;7.60;2.30;;;;;;;15.73;47.40;96042.25;5012130;28;20582;-85
2023/01/01 11:20:50;;;;;;;7.73;2.40;;;;;;;15.95;46.67;96045.13;5010416;28;20258;-84
2023/01/01 11:23:38;;;;;;;5.00;2.17;;;;;;;16.03;46.95;96039.88;5046447;28;20199;-84
2023/01/01 11:26:03;;;;;;;7.57;2.03;;;;;;;16.20;46.77;96043.25;4996148;28;20761;-84
2023/01/01 11:28:30;;;;;;;5.53;2.30;;;;;;;16.20;47.30;96036.19;5012299;28;20261;-84
2023/01/01 11:31:04;;;;;;;6.87;2.57;;;;;;;16.12;47.63;96026.56;5014273;28;20239;-84
2023/01/01 11:33:31;;;;;;;5.07;2.60;;;;;;;16.10;48.20;96025.13;5008803;28;20695;-84
2023/01/01 11:35:57;;;;;;;7.60;2.73;;;;;;;16.21;48.26;96035.22;5027734;28;20198;-84
2023/01/01 11:38:23;;;;;;;9.00;2.65;;;;;;;16.21;48.46;96023.91;5009878;28;20575;-84
2023/01/01 11:40:52;;;;;;;7.38;2.60;;;;;;;16.20;48.26;96012.63;5011255;28;20277;-84
2023/01/01 11:43:22;;;;;;;7.32;2.60;;;;;;;16.02;47.19;96019.91;5025572;28;20268;-83
2023/01/01 11:45:48;;;;;;;6.50;1.97;;;;;;;15.75;45.47;96008.84;5009063;28;20195;-83
2023/01/01 11:48:21;;;;;;;5.07;1.92;;;;;;;16.22;45.89;96004.59;4996912;28;20302;-84